Time;durP1;ratioP1;P1;durP2;ratioP2;P2;SDS_P1;SDS_P2;PMS_P1;PMS_P2;Temp;Humidity;BMP_temperature;BMP_pressure;BME280_temperature;BME280_humidity;BME280_pressure;Samples;Min_cycle;Max_cycle;Signal;HPM_P1;HPM_P2
2023/11/26 00:00:49;;;;;;;19.98;8.07;;;-1.80;99.90;;;;;;5052287;28;20053;-76
2023/11/26 00:03:15;;;;;;;10.48;3.88;;;-1.70;99.90;;;;;;5052614;28;20489;-77
2023/11/26 00:05:40;;;;;;;7.55;2.67;;;-1.70;99.90;;;;;;5053008;28;20048;-76
2023/11/26 00:08:06;;;;;;;4.57;1.63;;;-1.50;99.90;;;;;;5051903;28;20033;-77
2023/11/26 00:10:32;;;;;;;8.68;3.38;;;-1.50;99.90;;;;;;5051618;28;20032;-77
2023/11/26 00:12:57;;;;;;;16.30;6.78;;;-1.50;99.90;;;;;;5052769;28;20062;-77
2023/11/26 00:15:23;;;;;;;17.85;6.68;;;-1.50;99.90;;;;;;5052343;28;20087;-76
2023/11/26 00:17:49;;;;;;;16.67;6.40;;;-1.40;99.90;;;;;;5052703;28;20021;-77
2023/11/26 00:20:15;;;;;;;;;;;-1.60;99.90;;;;;;5052325;28;20040;-76
2023/11/26 00:22:41;;;;;;;16.17;7.10;;;-1.60;99.90;;;;;;5051349;28;19915;-76
2023/11/26 00:25:06;;;;;;;;;;;-1.70;99.90;;;;;;5051398;28;20423;-76
2023/11/26 00:27:33;;;;;;;24.42;8.63;;;-1.70;99.90;;;;;;5051163;28;19958;-76
2023/11/26 00:29:59;;;;;;;26.77;10.25;;;-1.60;99.90;;;;;;5052977;28;20024;-76
2023/11/26 00:32:24;;;;;;;30.05;10.77;;;-1.70;99.90;;;;;;5052707;28;20021;-77
2023/11/26 00:34:50;;;;;;;;;;;-1.70;99.90;;;;;;5051478;28;20025;-76
2023/11/26 00:37:16;;;;;;;26.73;9.57;;;-1.80;99.90;;;;;;5053023;28;19908;-76
2023/11/26 00:39:42;;;;;;;24.70;8.75;;;-1.80;99.90;;;;;;5052056;28;20017;-76
2023/11/26 00:42:08;;;;;;;22.05;9.05;;;-1.90;99.90;;;;;;5051548;28;20086;-77
2023/11/26 00:44:52;;;;;;;18.85;7.10;;;-1.90;99.90;;;;;;5053472;28;20053;-77
2023/11/26 00:47:19;;;;;;;16.92;6.70;;;-1.70;99.90;;;;;;5052136;28;20029;-77
2023/11/26 00:49:45;;;;;;;11.82;5.28;;;-1.60;99.90;;;;;;5049557;28;20599;-76
2023/11/26 00:52:11;;;;;;;19.35;10.15;;;-1.60;99.90;;;;;;5049746;28;20029;-76
2023/11/26 00:54:37;;;;;;;13.52;7.35;;;-1.70;99.90;;;;;;5049787;28;20090;-76
2023/11/26 00:57:02;;;;;;;16.98;8.98;;;-1.70;99.90;;;;;;5051074;28;20186;-76
2023/11/26 00:59:28;;;;;;;;;;;-1.80;99.90;;;;;;5050020;28;20025;-77
2023/11/26 01:01:53;;;;;;;13.10;6.75;;;-1.90;99.90;;;;;;5051126;28;19908;-76
2023/11/26 01:04:19;;;;;;;;;;;-1.90;99.90;;;;;;5051878;28;20068;-77
2023/11/26 01:06:44;;;;;;;16.85;8.15;;;-1.90;99.90;;;;;;5051430;28;19994;-75
2023/11/26 01:09:12;;;;;;;;;;;-1.90;99.90;;;;;;5052169;28;20026;-76
2023/11/26 01:11:38;;;;;;;12.80;4.53;;;-1.90;99.90;;;;;;5051864;28;19995;-76
2023/11/26 01:14:05;;;;;;;8.35;3.13;;;-1.90;99.90;;;;;;5051537;28;20159;-76
2023/11/26 01:16:31;;;;;;;8.02;2.58;;;-1.80;99.90;;;;;;5050019;28;20029;-76
2023/11/26 01:18:56;;;;;;;8.77;2.85;;;-1.70;99.90;;;;;;5050079;28;20035;-76
2023/11/26 01:21:22;;;;;;;;;;;-1.70;99.90;;;;;;5051321;28;20038;-76
2023/11/26 01:23:47;;;;;;;9.48;3.90;;;-1.70;99.90;;;;;;5050377;28;20373;-76
2023/11/26 01:26:13;;;;;;;9.30;3.85;;;-1.70;99.90;;;;;;5050528;28;20536;-76
2023/11/26 01:28:39;;;;;;;;;;;-1.80;99.90;;;;;;5050276;28;20120;-77
2023/11/26 01:31:08;;;;;;;12.90;5.13;;;-1.80;99.90;;;;;;5050165;28;19912;-77
2023/11/26 01:33:33;;;;;;;10.32;4.25;;;-1.90;99.90;;;;;;5049684;28;20544;-76
2023/11/26 01:35:59;;;;;;;8.55;3.33;;;-2.00;99.90;;;;;;5050093;28;20037;-76
2023/11/26 01:38:24;;;;;;;;;;;-2.10;99.90;;;;;;5050285;28;20090;-76
2023/11/26 01:40:50;;;;;;;6.75;3.00;;;-2.20;99.90;;;;;;5051189;28;20432;-76
2023/11/26 01:43:20;;;;;;;;;;;-2.10;99.90;;;;;;5050934;28;20052;-76
2023/11/26 01:45:46;;;;;;;4.35;1.77;;;-2.00;99.90;;;;;;5049572;28;19916;-76
2023/11/26 01:48:13;;;;;;;5.50;1.95;;;-2.20;99.90;;;;;;5049813;28;20821;-76
2023/11/26 01:50:39;;;;;;;2.97;0.82;;;-2.20;99.90;;;;;;5049941;28;20025;-76
2023/11/26 01:53:04;;;;;;;5.60;1.65;;;-2.20;99.90;;;;;;5051321;28;20473;-77
2023/11/26 01:55:30;;;;;;;;;;;-2.20;99.90;;;;;;5050041;28;20067;-76
2023/11/26 01:57:55;;;;;;;2.97;0.93;;;-2.10;99.90;;;;;;5050808;28;19951;-76
2023/11/26 02:00:21;;;;;;;;;;;-2.10;99.90;;;;;;5052094;28;20440;-76
2023/11/26 02:02:47;;;;;;;4.50;1.63;;;-2.00;99.90;;;;;;5051920;28;19944;-76
2023/11/26 02:05:13;;;;;;;5.80;2.60;;;-2.00;99.90;;;;;;5050638;28;20524;-75
2023/11/26 02:07:39;;;;;;;5.68;2.40;;;-2.00;99.90;;;;;;5052231;28;20044;-76
2023/11/26 02:10:07;;;;;;;7.72;2.97;;;-2.00;99.90;;;;;;5051714;28;20143;-77
2023/11/26 02:12:32;;;;;;;7.63;2.78;;;-1.90;99.90;;;;;;5050155;28;20028;-76
2023/11/26 02:14:58;;;;;;;5.70;2.13;;;-2.00;99.90;;;;;;5049826;28;20052;-77
2023/11/26 02:17:25;;;;;;;;;;;-2.00;99.90;;;;;;5050033;28;20021;-77
2023/11/26 02:19:53;;;;;;;7.55;2.88;;;-2.00;99.90;;;;;;5049821;28;20389;-76
2023/11/26 02:22:19;;;;;;;6.95;2.45;;;-2.00;99.90;;;;;;5049576;28;20025;-77
2023/11/26 02:24:46;;;;;;;7.63;2.58;;;-2.10;99.90;;;;;;5048045;28;20037;-76
2023/11/26 02:27:12;;;;;;;5.88;2.22;;;-2.00;99.90;;;;;;5049820;28;20021;-76
2023/11/26 02:29:38;;;;;;;5.47;2.28;;;-2.10;99.90;;;;;;5048454;28;20505;-76
2023/11/26 02:32:04;;;;;;;8.02;3.00;;;-2.10;99.90;;;;;;5049612;28;20489;-76
2023/11/26 02:34:30;;;;;;;6.72;2.30;;;-2.10;99.90;;;;;;5052507;28;20029;-77
2023/11/26 02:36:56;;;;;;;6.55;2.83;;;-2.10;99.90;;;;;;5053615;28;20633;-76
2023/11/26 02:39:23;;;;;;;;;;;-2.20;99.90;;;;;;5052948;28;20049;-76
2023/11/26 02:41:48;;;;;;;;;;;-2.20;99.90;;;;;;5052919;28;20395;-76
2023/11/26 02:44:14;;;;;;;8.43;3.65;;;-2.20;99.90;;;;;;5052360;28;20000;-76
2023/11/26 02:46:40;;;;;;;9.05;3.08;;;-2.30;99.90;;;;;;5053643;28;20136;-76
2023/11/26 02:49:08;;;;;;;;;;;-2.30;99.90;;;;;;5054504;28;20036;-76
2023/11/26 02:51:34;;;;;;;12.57;4.68;;;-2.30;99.90;;;;;;5053739;28;19935;-76
2023/11/26 02:54:00;;;;;;;12.98;5.18;;;-2.30;99.90;;;;;;5053715;28;20025;-75
2023/11/26 02:56:25;;;;;;;;;;;-2.30;99.90;;;;;;5054027;28;20103;-76
2023/11/26 02:58:51;;;;;;;5.90;1.70;;;-2.20;99.90;;;;;;5053336;28;19908;-77
2023/11/26 03:01:21;;;;;;;4.72;2.53;;;-2.20;99.90;;;;;;5052204;28;20025;-76
2023/11/26 03:03:47;;;;;;;6.68;3.05;;;-2.10;99.90;;;;;;5053443;28;20036;-76
2023/11/26 03:06:16;;;;;;;12.20;4.88;;;-2.10;99.90;;;;;;5053548;28;20045;-76
2023/11/26 03:08:43;;;;;;;3.95;1.17;;;-2.10;99.90;;;;;;5053591;28;20056;-76
2023/11/26 03:13:55;;;;;;;7.80;2.33;;;-1.90;99.90;;;;;;5053643;28;20082;-77
2023/11/26 03:16:24;;;;;;;9.45;2.92;;;-1.90;99.90;;;;;;5053872;28;20024;-76
2023/11/26 03:18:50;;;;;;;1.80;0.70;;;-1.90;99.90;;;;;;5052262;28;20033;-76
2023/11/26 03:21:18;;;;;;;4.35;1.30;;;-1.80;99.90;;;;;;5052249;28;20021;-76
2023/11/26 03:23:45;;;;;;;8.02;2.58;;;-1.90;99.90;;;;;;5054225;28;20029;-76
2023/11/26 03:26:12;;;;;;;13.32;4.90;;;-2.00;99.90;;;;;;5052922;28;20055;-77
2023/11/26 03:28:42;;;;;;;15.20;4.47;;;-2.10;99.90;;;;;;5054410;28;20021;-76
2023/11/26 03:31:08;;;;;;;13.70;4.60;;;-2.10;99.90;;;;;;5054346;28;20037;-76
2023/11/26 03:33:34;;;;;;;17.30;5.10;;;-2.10;99.90;;;;;;5053025;28;20025;-76
2023/11/26 03:36:00;;;;;;;18.55;6.82;;;-2.20;99.90;;;;;;5054266;28;20029;-76
2023/11/26 03:38:25;;;;;;;11.70;4.28;;;-2.10;99.90;;;;;;5054322;28;20039;-76
2023/11/26 03:40:51;;;;;;;;;;;-1.90;99.90;;;;;;5055082;28;20035;-76
2023/11/26 03:43:16;;;;;;;10.13;4.03;;;-1.80;99.90;;;;;;5054101;28;19966;-77
2023/11/26 03:45:42;;;;;;;11.35;4.05;;;-1.90;99.90;;;;;;5053250;28;20418;-76
2023/11/26 03:48:08;;;;;;;;;;;-2.00;99.90;;;;;;5054694;28;20029;-76
2023/11/26 03:50:34;;;;;;;20.27;8.35;;;-2.20;99.90;;;;;;5054312;28;19926;-76
2023/11/26 03:53:00;;;;;;;;;;;-2.10;99.90;;;;;;5053106;28;20429;-74
2023/11/26 03:55:26;;;;;;;12.48;4.90;;;-2.20;99.90;;;;;;5051049;28;19909;-74
2023/11/26 03:57:52;;;;;;;15.80;6.78;;;-2.20;99.90;;;;;;5052466;28;20389;-76
2023/11/26 04:00:18;;;;;;;13.65;4.65;;;-2.10;99.90;;;;;;5052290;28;20029;-76
2023/11/26 04:02:44;;;;;;;9.55;3.50;;;-2.00;99.90;;;;;;5052653;28;20032;-75
2023/11/26 04:05:10;;;;;;;9.75;3.85;;;-2.00;99.90;;;;;;5052352;28;20064;-76
2023/11/26 04:07:36;;;;;;;18.40;7.50;;;-2.00;99.90;;;;;;5050777;28;20021;-75
2023/11/26 04:10:03;;;;;;;34.15;12.52;;;-2.10;99.90;;;;;;5052344;28;20032;-76
2023/11/26 04:12:29;;;;;;;41.55;15.15;;;-2.00;99.90;;;;;;5052531;28;20028;-76
2023/11/26 04:14:58;;;;;;;84.75;27.52;;;-2.10;99.90;;;;;;5050605;28;20033;-76
2023/11/26 04:17:25;;;;;;;69.63;19.52;;;-2.10;99.90;;;;;;5052142;28;20475;-75
2023/11/26 04:19:52;;;;;;;34.13;9.27;;;-2.20;99.90;;;;;;5051442;28;20112;-76
2023/11/26 04:22:20;;;;;;;57.63;14.48;;;-2.30;99.90;;;;;;5052592;28;20045;-76
2023/11/26 04:24:46;;;;;;;30.55;9.65;;;-2.50;99.90;;;;;;5051193;28;20074;-76
2023/11/26 04:27:11;;;;;;;32.38;9.80;;;-2.30;99.90;;;;;;5049791;28;20041;-76
2023/11/26 04:29:37;;;;;;;34.03;10.68;;;-2.40;99.90;;;;;;5051495;28;20116;-76
2023/11/26 04:32:04;;;;;;;29.88;9.75;;;-2.60;99.90;;;;;;5051912;28;20123;-76
2023/11/26 04:34:29;;;;;;;23.33;8.30;;;-2.60;99.90;;;;;;5051820;28;20068;-76
2023/11/26 04:36:56;;;;;;;14.85;5.97;;;-2.50;99.90;;;;;;5049508;28;20060;-75
2023/11/26 04:39:22;;;;;;;11.70;4.95;;;-2.70;99.90;;;;;;5051651;28;20029;-75
2023/11/26 04:41:47;;;;;;;15.10;5.47;;;-2.70;99.90;;;;;;5050666;28;20036;-76
2023/11/26 04:44:13;;;;;;;14.93;5.72;;;-2.70;99.90;;;;;;5049868;28;20387;-77
2023/11/26 04:46:39;;;;;;;12.35;5.32;;;-2.80;99.90;;;;;;5049735;28;20044;-75
2023/11/26 04:49:04;;;;;;;11.75;5.68;;;-2.80;99.90;;;;;;5049214;28;20021;-76
2023/11/26 04:51:34;;;;;;;10.52;4.50;;;-2.70;99.90;;;;;;5049748;28;20029;-76
2023/11/26 04:54:00;;;;;;;12.10;5.43;;;-2.70;99.90;;;;;;5050944;28;20573;-76
2023/11/26 04:56:26;;;;;;;10.48;4.10;;;-2.70;99.90;;;;;;5050798;28;20128;-76
2023/11/26 04:58:51;;;;;;;7.57;2.72;;;-2.80;99.90;;;;;;5050124;28;20040;-75
2023/11/26 05:01:17;;;;;;;4.20;1.80;;;-2.70;99.90;;;;;;5051345;28;20033;-76
2023/11/26 05:03:43;;;;;;;4.20;2.10;;;-2.80;99.90;;;;;;5050019;28;20037;-75
2023/11/26 05:06:11;;;;;;;5.47;2.83;;;-2.80;99.90;;;;;;5049880;28;20029;-76
2023/11/26 05:08:36;;;;;;;9.40;4.57;;;-2.80;99.90;;;;;;5051774;28;20052;-76
2023/11/26 05:11:02;;;;;;;9.18;5.07;;;-2.80;99.90;;;;;;5051057;28;20063;-76
2023/11/26 05:13:28;;;;;;;8.02;4.00;;;-2.70;99.90;;;;;;5051396;28;20482;-76
2023/11/26 05:15:53;;;;;;;;;;;-2.50;99.90;;;;;;5049834;28;20025;-76
2023/11/26 05:18:20;;;;;;;7.65;2.95;;;-2.30;99.90;;;;;;5049339;28;20297;-76
2023/11/26 05:20:47;;;;;;;25.10;8.25;;;-2.30;99.90;;;;;;5050401;28;20033;-75
2023/11/26 05:23:13;;;;;;;3.85;1.60;;;-2.30;99.90;;;;;;5049591;28;20029;-76
2023/11/26 05:25:38;;;;;;;3.95;1.50;;;-2.40;99.90;;;;;;5050236;28;20415;-76
2023/11/26 05:28:04;;;;;;;2.47;0.80;;;-2.40;99.90;;;;;;5050575;28;20025;-76
2023/11/26 05:30:30;;;;;;;2.20;0.90;;;-2.50;99.90;;;;;;5049174;28;20410;-76
2023/11/26 05:32:57;;;;;;;;;;;-2.40;99.90;;;;;;5049191;28;20032;-77
2023/11/26 05:35:23;;;;;;;;;;;-2.50;99.90;;;;;;5049792;28;19919;-77
2023/11/26 05:37:48;;;;;;;3.08;1.17;;;-2.50;99.90;;;;;;5051066;28;19909;-76
2023/11/26 05:40:15;;;;;;;4.85;1.70;;;-2.40;99.90;;;;;;5048830;28;20497;-76
2023/11/26 05:42:40;;;;;;;12.10;3.85;;;-2.40;99.90;;;;;;5050411;28;20186;-76
2023/11/26 05:45:06;;;;;;;15.60;5.72;;;-2.30;99.90;;;;;;5050289;28;20554;-76
2023/11/26 05:47:32;;;;;;;11.65;4.03;;;-2.10;99.90;;;;;;5049547;28;20119;-75
2023/11/26 05:49:58;;;;;;;12.82;4.75;;;-2.00;99.90;;;;;;5049094;28;20039;-76
2023/11/26 05:52:24;;;;;;;9.35;4.50;;;-1.90;99.90;;;;;;5049353;28;20120;-76
2023/11/26 05:54:51;;;;;;;6.97;3.60;;;-2.00;99.90;;;;;;5049241;28;20088;-76
2023/11/26 05:57:17;;;;;;;6.97;3.13;;;-1.90;99.90;;;;;;5049143;28;20040;-76
2023/11/26 05:59:42;;;;;;;6.80;3.13;;;-2.00;99.90;;;;;;5049875;28;20017;-76
2023/11/26 06:02:08;;;;;;;;;;;-2.10;99.90;;;;;;5050086;28;20033;-76
2023/11/26 06:04:34;;;;;;;7.95;2.78;;;-2.20;99.90;;;;;;5051034;28;19916;-75
2023/11/26 06:06:59;;;;;;;;;;;-2.30;99.90;;;;;;5051522;28;20580;-76
2023/11/26 06:09:26;;;;;;;5.97;2.13;;;-2.30;99.90;;;;;;5051213;28;19909;-76
2023/11/26 06:11:52;;;;;;;8.18;3.33;;;-2.30;99.90;;;;;;5050947;28;20017;-75
2023/11/26 06:14:18;;;;;;;10.73;2.70;;;-2.30;99.90;;;;;;5050008;28;20109;-75
2023/11/26 06:16:45;;;;;;;14.73;5.60;;;-2.20;99.90;;;;;;5049332;28;20840;-76
2023/11/26 06:19:11;;;;;;;12.57;5.82;;;-2.20;99.90;;;;;;5049028;28;20029;-76
2023/11/26 06:21:37;;;;;;;12.38;5.25;;;-2.10;99.90;;;;;;5049625;28;20440;-75
2023/11/26 06:24:04;;;;;;;17.33;7.22;;;-2.10;99.90;;;;;;5049567;28;20032;-76
2023/11/26 06:26:30;;;;;;;6.72;2.95;;;-1.90;99.90;;;;;;5052434;28;20037;-76
2023/11/26 06:28:57;;;;;;;6.50;1.35;;;-1.70;99.90;;;;;;5049370;28;20501;-76
2023/11/26 06:31:24;;;;;;;5.25;1.25;;;-1.50;99.90;;;;;;5048734;28;20035;-75
2023/11/26 06:33:51;;;;;;;12.68;4.10;;;-1.40;99.90;;;;;;5050205;28;20033;-75
2023/11/26 06:36:24;;;;;;;9.82;3.90;;;-1.20;99.90;;;;;;5048892;28;20052;-76
2023/11/26 06:38:54;;;;;;;5.32;2.33;;;-1.10;99.90;;;;;;5050156;28;20661;-75
2023/11/26 06:41:27;;;;;;;10.13;4.97;;;-1.00;99.90;;;;;;5049671;28;20037;-76
2023/11/26 06:43:56;;;;;;;90.32;43.38;;;-1.00;99.90;;;;;;5050369;28;20052;-76
2023/11/26 06:46:23;;;;;;;134.70;60.10;;;-1.00;99.90;;;;;;5051969;28;20037;-76
2023/11/26 06:48:50;;;;;;;88.00;40.47;;;-0.90;99.90;;;;;;5050841;28;20387;-75
2023/11/26 06:51:17;;;;;;;48.72;24.70;;;-0.90;99.90;;;;;;5053077;28;20118;-76
2023/11/26 06:53:43;;;;;;;18.77;10.32;;;-0.80;99.90;;;;;;5050951;28;20021;-76
2023/11/26 06:56:09;;;;;;;8.05;3.15;;;-0.60;99.90;;;;;;5050514;28;20064;-76
2023/11/26 06:58:39;;;;;;;;;;;-0.20;99.90;;;;;;5048981;28;20106;-75
2023/11/26 07:01:05;;;;;;;3.55;1.17;;;0.20;99.90;;;;;;5050483;28;20278;-76
2023/11/26 07:03:34;;;;;;;2.55;0.90;;;0.40;99.90;;;;;;5049556;28;20492;-76
2023/11/26 07:06:10;;;;;;;4.07;1.23;;;0.60;99.90;;;;;;5049520;28;20107;-76
2023/11/26 07:08:37;;;;;;;4.10;0.95;;;0.80;99.90;;;;;;5050972;28;20032;-76
2023/11/26 07:11:04;;;;;;;2.92;1.13;;;0.80;99.90;;;;;;5051092;28;20025;-75
2023/11/26 07:13:29;;;;;;;4.55;1.40;;;1.00;99.90;;;;;;5051488;28;20025;-76
2023/11/26 07:15:55;;;;;;;;;;;1.40;99.90;;;;;;5049178;28;20032;-76
2023/11/26 07:18:20;;;;;;;6.82;2.47;;;1.70;99.90;;;;;;5050308;28;19916;-76
2023/11/26 07:20:46;;;;;;;;;;;2.00;99.90;;;;;;5050125;28;20052;-77
2023/11/26 07:23:13;;;;;;;5.57;2.33;;;2.20;99.90;;;;;;5052497;28;20449;-77
2023/11/26 07:25:39;;;;;;;9.32;3.63;;;2.20;99.90;;;;;;5053455;28;20039;-76
2023/11/26 07:28:11;;;;;;;9.18;4.22;;;2.10;99.90;;;;;;5053958;28;20033;-79
2023/11/26 07:30:37;;;;;;;11.18;5.35;;;2.00;99.90;;;;;;5055105;28;20116;-76
2023/11/26 07:33:03;;;;;;;12.48;5.07;;;2.00;99.90;;;;;;5054846;28;20029;-76
2023/11/26 07:35:30;;;;;;;9.75;3.85;;;2.10;99.90;;;;;;5054981;28;20068;-76
2023/11/26 07:37:56;;;;;;;9.93;4.63;;;2.30;99.90;;;;;;5053642;28;20520;-76
2023/11/26 07:40:22;;;;;;;11.27;5.40;;;2.70;99.90;;;;;;5053955;28;20029;-76
2023/11/26 07:42:49;;;;;;;;;;;3.10;99.90;;;;;;5055348;28;20045;-76
2023/11/26 07:45:16;;;;;;;11.98;4.82;;;3.60;99.90;;;;;;5053117;28;20007;-76
2023/11/26 07:47:41;;;;;;;13.98;6.63;;;4.00;99.90;;;;;;5054153;28;20025;-77
2023/11/26 07:50:07;;;;;;;;;;;4.50;99.90;;;;;;5054660;28;20033;-77
2023/11/26 07:52:34;;;;;;;17.90;7.60;;;4.80;99.90;;;;;;5054350;28;20428;-77
2023/11/26 07:55:03;;;;;;;13.38;6.45;;;5.10;99.90;;;;;;5054390;28;20029;-77
2023/11/26 07:57:30;;;;;;;22.65;9.13;;;5.30;99.90;;;;;;5054503;28;20029;-77
2023/11/26 07:59:57;;;;;;;10.27;4.20;;;5.40;99.90;;;;;;5052677;28;20013;-76
2023/11/26 08:02:23;;;;;;;8.75;3.42;;;5.50;99.90;;;;;;5052886;28;20052;-77
2023/11/26 08:04:53;;;;;;;7.20;2.20;;;5.80;99.90;;;;;;5052362;28;20493;-77
2023/11/26 08:07:23;;;;;;;10.35;3.95;;;6.10;99.90;;;;;;5052754;28;20025;-77
2023/11/26 08:09:53;;;;;;;5.55;1.55;;;5.90;99.90;;;;;;5052852;28;20027;-77
2023/11/26 08:12:20;;;;;;;5.18;1.38;;;5.60;99.90;;;;;;5054158;28;20056;-77
2023/11/26 08:14:48;;;;;;;8.85;3.75;;;5.10;99.90;;;;;;5053830;28;20028;-77
2023/11/26 08:17:15;;;;;;;13.07;4.03;;;4.80;99.90;;;;;;5054700;28;20021;-77
2023/11/26 08:19:41;;;;;;;13.63;3.17;;;4.30;99.90;;;;;;5055430;28;20091;-76
2023/11/26 08:22:07;;;;;;;6.00;3.00;;;3.90;99.90;;;;;;5052612;28;20432;-77
2023/11/26 08:24:36;;;;;;;13.05;7.00;;;4.00;99.90;;;;;;5054933;28;20025;-77
2023/11/26 08:27:02;;;;;;;60.50;26.88;;;3.60;99.90;;;;;;5054123;28;20541;-76
2023/11/26 08:29:27;;;;;;;;;;;3.50;99.90;;;;;;5054899;28;20029;-77
2023/11/26 08:31:54;;;;;;;17.55;8.43;;;3.40;99.90;;;;;;5052336;28;19909;-76
2023/11/26 08:34:22;;;;;;;69.68;31.08;;;3.50;99.90;;;;;;5054377;28;20037;-76
2023/11/26 08:36:50;;;;;;;31.15;14.32;;;3.50;99.90;;;;;;5054258;28;20058;-76
2023/11/26 08:39:25;;;;;;;33.50;17.55;;;3.60;99.90;;;;;;5052246;28;20023;-77
2023/11/26 08:41:51;;;;;;;33.90;18.63;;;3.50;99.90;;;;;;5051492;28;20032;-76
2023/11/26 08:44:17;;;;;;;;;;;3.60;99.90;;;;;;5051737;28;20049;-77
2023/11/26 08:46:43;;;;;;;17.10;8.63;;;3.70;99.90;;;;;;5052345;28;19916;-78
2023/11/26 08:49:09;;;;;;;;;;;3.70;99.90;;;;;;5051433;28;20401;-76
2023/11/26 08:51:40;;;;;;;13.13;7.40;;;3.80;99.90;;;;;;5052288;28;19904;-76
2023/11/26 08:54:06;;;;;;;16.17;8.75;;;4.00;99.90;;;;;;5051954;28;20516;-76
2023/11/26 08:56:31;;;;;;;;;;;3.80;99.90;;;;;;5052421;28;20040;-74
2023/11/26 08:58:57;;;;;;;14.13;4.43;;;3.70;99.90;;;;;;5051956;28;20342;-76
2023/11/26 09:01:23;;;;;;;;;;;3.70;99.90;;;;;;5052000;28;20037;-77
2023/11/26 09:03:48;;;;;;;6.80;2.58;;;3.70;99.90;;;;;;5051494;28;19911;-76
2023/11/26 09:06:14;;;;;;;;;;;3.60;99.90;;;;;;5050652;28;20102;-77
2023/11/26 09:08:40;;;;;;;14.20;6.55;;;3.60;99.90;;;;;;5050172;28;19909;-76
2023/11/26 09:11:06;;;;;;;;;;;3.70;99.90;;;;;;5050964;28;20021;-77
2023/11/26 09:13:32;;;;;;;5.47;2.07;;;3.60;99.90;;;;;;5050313;28;20292;-76
2023/11/26 09:15:59;;;;;;;;;;;3.70;99.90;;;;;;5052212;28;20096;-75
2023/11/26 09:18:25;;;;;;;5.72;1.80;;;3.60;99.90;;;;;;5049577;28;19915;-75
2023/11/26 09:20:50;;;;;;;;;;;3.50;99.90;;;;;;5051951;28;20033;-76
2023/11/26 09:23:16;;;;;;;7.20;3.45;;;3.50;99.90;;;;;;5051006;28;19959;-76
2023/11/26 09:25:41;;;;;;;;;;;3.70;99.90;;;;;;5051831;28;20045;-77
2023/11/26 09:28:07;;;;;;;7.25;2.72;;;3.60;99.90;;;;;;5051679;28;19904;-76
2023/11/26 09:30:33;;;;;;;;;;;3.70;99.90;;;;;;5051795;28;20033;-76
2023/11/26 09:32:59;;;;;;;28.95;13.15;;;3.70;99.90;;;;;;5050385;28;19905;-77
2023/11/26 09:35:25;;;;;;;;;;;3.80;99.90;;;;;;5052254;28;20025;-77
2023/11/26 09:37:50;;;;;;;14.88;7.32;;;3.90;99.90;;;;;;5051813;28;19916;-77
2023/11/26 09:40:16;;;;;;;;;;;3.90;99.90;;;;;;5052346;28;20112;-76
2023/11/26 09:42:48;;;;;;;4.15;1.88;;;4.10;99.90;;;;;;5049619;28;19964;-77
2023/11/26 09:45:15;;;;;;;6.30;2.03;;;3.90;99.90;;;;;;5051093;28;20036;-76
2023/11/26 09:47:40;;;;;;;4.63;2.40;;;3.80;99.90;;;;;;5050314;28;20025;-76
2023/11/26 09:50:09;;;;;;;;;;;3.70;99.90;;;;;;5050972;28;20547;-76
2023/11/26 09:52:36;;;;;;;12.10;3.78;;;3.70;99.90;;;;;;5049938;28;19915;-76
2023/11/26 09:55:03;;;;;;;9.25;3.88;;;3.60;99.90;;;;;;5051698;28;20031;-76
2023/11/26 09:57:33;;;;;;;12.23;5.07;;;3.70;99.90;;;;;;5050688;28;20021;-76
2023/11/26 09:59:59;;;;;;;11.27;3.50;;;3.60;99.90;;;;;;5050910;28;20029;-76
2023/11/26 10:02:25;;;;;;;8.10;3.15;;;3.60;99.90;;;;;;5050726;28;20029;-76
2023/11/26 10:04:53;;;;;;;9.32;3.72;;;3.40;99.90;;;;;;5050722;28;20029;-76
2023/11/26 10:07:35;;;;;;;12.63;5.05;;;3.40;99.90;;;;;;5052102;28;20497;-75
2023/11/26 10:10:12;;;;;;;12.98;6.03;;;3.40;99.90;;;;;;5051222;28;20029;-76
2023/11/26 10:13:00;;;;;;;7.82;3.65;;;3.40;99.90;;;;;;5050718;28;20036;-77
2023/11/26 10:15:31;;;;;;;6.28;2.55;;;3.40;99.90;;;;;;5049654;28;20068;-76
2023/11/26 10:18:04;;;;;;;9.40;5.47;;;3.40;99.90;;;;;;5049928;28;20140;-76
2023/11/26 10:20:35;;;;;;;8.93;4.85;;;3.40;99.90;;;;;;5050407;28;20059;-77
2023/11/26 10:23:02;;;;;;;12.45;5.47;;;3.30;99.90;;;;;;5051389;28;20021;-76
2023/11/26 10:25:28;;;;;;;12.32;5.63;;;3.40;99.90;;;;;;5050739;28;20082;-77
2023/11/26 10:27:59;;;;;;;12.07;4.97;;;3.40;99.90;;;;;;5050356;28;20052;-76
2023/11/26 10:30:33;;;;;;;6.57;2.90;;;3.40;99.90;;;;;;5052432;28;20571;-76
2023/11/26 10:33:03;;;;;;;6.53;3.35;;;3.50;99.90;;;;;;5052140;28;20036;-77
2023/11/26 10:35:53;;;;;;;23.83;12.55;;;3.60;99.90;;;;;;5050363;28;20032;-76
2023/11/26 10:38:21;;;;;;;114.07;46.70;;;3.70;99.90;;;;;;5051885;28;20022;-76
2023/11/26 10:40:47;;;;;;;99.15;44.60;;;3.60;99.90;;;;;;5052085;28;20091;-76
2023/11/26 10:43:13;;;;;;;;;;;3.70;98.80;;;;;;5051577;28;20410;-76
2023/11/26 10:45:42;;;;;;;18.58;10.35;;;3.70;98.60;;;;;;5050509;28;19943;-76
2023/11/26 10:48:14;;;;;;;8.15;3.13;;;3.60;97.10;;;;;;5053469;28;20033;-77
2023/11/26 10:51:08;;;;;;;9.40;4.65;;;3.70;99.10;;;;;;5049804;28;20089;-76
2023/11/26 10:53:43;;;;;;;9.68;4.97;;;3.70;99.50;;;;;;5049605;28;20021;-76
2023/11/26 10:56:13;;;;;;;6.97;3.58;;;3.80;98.40;;;;;;5053374;28;20033;-77
2023/11/26 10:58:42;;;;;;;7.55;3.70;;;3.90;99.90;;;;;;5052168;28;20083;-77
2023/11/26 11:01:08;;;;;;;5.90;2.33;;;3.90;99.90;;;;;;5053939;28;20029;-76
2023/11/26 11:03:34;;;;;;;;;;;4.00;99.90;;;;;;5053879;28;20039;-76
2023/11/26 11:06:02;;;;;;;5.15;2.03;;;4.10;99.90;;;;;;5052292;28;19920;-77
2023/11/26 11:08:28;;;;;;;4.68;2.05;;;4.00;99.90;;;;;;5052175;28;20025;-76
2023/11/26 11:11:14;;;;;;;6.20;2.58;;;4.00;99.90;;;;;;5052229;28;20029;-77
2023/11/26 11:13:40;;;;;;;6.40;2.17;;;4.00;99.90;;;;;;5052017;28;20035;-76
2023/11/26 11:16:06;;;;;;;6.40;2.50;;;4.00;99.40;;;;;;5051398;28;20115;-76
2023/11/26 11:18:38;;;;;;;;;;;4.20;98.10;;;;;;5053534;28;20104;-77
2023/11/26 11:21:05;;;;;;;5.97;2.80;;;4.20;96.70;;;;;;5052852;28;20007;-76
2023/11/26 11:23:32;;;;;;;7.03;2.72;;;4.30;99.60;;;;;;5052802;28;20047;-76
2023/11/26 11:25:57;;;;;;;5.65;2.15;;;4.30;97.30;;;;;;5051472;28;20033;-77
2023/11/26 11:28:35;;;;;;;;;;;4.40;96.90;;;;;;5053548;28;20108;-77
2023/11/26 11:31:01;;;;;;;23.75;1.38;;;4.50;95.30;;;;;;5052311;28;19913;-77
2023/11/26 11:33:26;;;;;;;;;;;4.50;95.50;;;;;;5054349;28;20079;-76
2023/11/26 11:35:53;;;;;;;10.52;4.70;;;4.40;95.00;;;;;;5054507;28;20385;-76
2023/11/26 11:38:20;;;;;;;9.20;4.30;;;4.30;97.00;;;;;;5052324;28;20082;-76
2023/11/26 11:41:13;;;;;;;12.57;6.97;;;4.20;97.70;;;;;;5053842;28;20164;-77
2023/11/26 11:43:42;;;;;;;10.88;5.43;;;4.20;97.80;;;;;;5053529;28;20069;-76
2023/11/26 11:46:26;;;;;;;12.85;6.38;;;4.20;97.00;;;;;;5053339;28;20041;-76
2023/11/26 11:48:59;;;;;;;27.40;14.65;;;4.10;96.00;;;;;;5051274;28;20060;-77
2023/11/26 11:51:38;;;;;;;17.77;10.27;;;4.10;93.90;;;;;;5051571;28;20045;-77
2023/11/26 11:54:09;;;;;;;6.90;4.25;;;4.00;92.60;;;;;;5053040;28;20055;-76
2023/11/26 11:56:43;;;;;;;4.95;2.65;;;4.10;90.10;;;;;;5051279;28;20041;-76
2023/11/26 11:59:09;;;;;;;7.40;4.32;;;4.00;86.50;;;;;;5052977;28;20040;-77
2023/11/26 12:01:36;;;;;;;45.50;21.58;;;4.00;81.10;;;;;;5052628;28;20025;-77
2023/11/26 12:04:02;;;;;;;8.05;2.83;;;4.00;84.10;;;;;;5054931;28;20040;-75
2023/11/26 12:06:29;;;;;;;8.43;3.45;;;4.00;90.40;;;;;;5053747;28;20493;-76
2023/11/26 12:08:57;;;;;;;3.88;1.50;;;3.90;92.80;;;;;;5055308;28;20036;-76
2023/11/26 12:11:23;;;;;;;10.32;3.47;;;3.80;92.40;;;;;;5053918;28;20059;-76
2023/11/26 12:13:48;;;;;;;;;;;3.60;94.20;;;;;;5053697;28;20013;-76
2023/11/26 12:16:14;;;;;;;9.25;3.78;;;3.50;95.00;;;;;;5053906;28;19915;-76
2023/11/26 12:18:40;;;;;;;;;;;3.50;94.80;;;;;;5052406;28;20417;-76
2023/11/26 12:21:06;;;;;;;12.07;4.45;;;3.40;94.40;;;;;;5051283;28;20381;-76
2023/11/26 12:23:32;;;;;;;;;;;3.40;95.20;;;;;;5053610;28;20036;-76
2023/11/26 12:25:58;;;;;;;19.97;9.93;;;3.40;94.80;;;;;;5051464;28;20347;-75
2023/11/26 12:28:25;;;;;;;44.67;23.10;;;3.30;92.10;;;;;;5051644;28;20338;-76
2023/11/26 12:30:59;;;;;;;32.90;16.30;;;3.30;88.80;;;;;;5052638;28;20025;-77
2023/11/26 12:33:25;;;;;;;17.80;9.50;;;3.40;88.20;;;;;;5055125;28;20032;-77
2023/11/26 12:35:51;;;;;;;;;;;3.40;85.90;;;;;;5055443;28;20035;-78
2023/11/26 12:38:24;;;;;;;15.80;6.75;;;3.50;82.10;;;;;;5055133;28;19908;-76
2023/11/26 12:40:50;;;;;;;14.07;5.85;;;3.50;82.80;;;;;;5053206;28;20498;-75
2023/11/26 12:43:16;;;;;;;15.00;7.07;;;3.50;83.10;;;;;;5051889;28;20059;-75
2023/11/26 12:45:41;;;;;;;;;;;3.60;81.50;;;;;;5052724;28;20033;-76
2023/11/26 12:48:07;;;;;;;8.05;2.67;;;3.70;80.60;;;;;;5052024;28;19966;-76
2023/11/26 12:50:50;;;;;;;;;;;3.60;77.20;;;;;;5053937;28;20033;-77
2023/11/26 12:53:17;;;;;;;6.68;3.47;;;3.90;74.40;;;;;;5053902;28;19909;-77
2023/11/26 12:55:47;;;;;;;7.97;4.60;;;4.40;71.30;;;;;;5052919;28;20112;-75
2023/11/26 12:58:22;;;;;;;7.55;2.45;;;4.20;72.60;;;;;;5053529;28;20122;-78
2023/11/26 13:00:48;;;;;;;7.13;0.90;;;4.20;73.70;;;;;;5053085;28;20033;-76
2023/11/26 13:03:17;;;;;;;;;;;4.20;68.30;;;;;;5050760;28;20037;-76